sensor_id;sensor_type;location;lat;lon;timestamp;P1;durP1;ratioP1;P2;durP2;ratioP2
24547;SDS011;12713;51.624;4.924;2022-08-11T00:00:49;3.40;;;2.85;;
24547;SDS011;12713;51.624;4.924;2022-08-11T00:03:15;4.72;;;2.60;;
24547;SDS011;12713;51.624;4.924;2022-08-11T00:05:46;5.65;;;2.60;;
24547;SDS011;12713;51.624;4.924;2022-08-11T00:08:22;3.40;;;2.97;;
24547;SDS011;12713;51.624;4.924;2022-08-11T00:10:56;3.95;;;2.90;;
24547;SDS011;12713;51.624;4.924;2022-08-11T00:13:33;4.38;;;2.75;;
24547;SDS011;12713;51.624;4.924;2022-08-11T00:16:00;8.48;;;3.15;;
24547;SDS011;12713;51.624;4.924;2022-08-11T00:18:26;4.68;;;2.70;;
24547;SDS011;12713;51.624;4.924;2022-08-11T00:20:56;3.30;;;2.78;;
24547;SDS011;12713;51.624;4.924;2022-08-11T00:23:23;4.97;;;3.30;;
24547;SDS011;12713;51.624;4.924;2022-08-11T00:25:52;7.15;;;3.75;;
24547;SDS011;12713;51.624;4.924;2022-08-11T00:28:29;4.63;;;3.25;;
24547;SDS011;12713;51.624;4.924;2022-08-11T00:30:57;4.25;;;2.85;;
24547;SDS011;12713;51.624;4.924;2022-08-11T00:33:25;5.85;;;2.72;;
24547;SDS011;12713;51.624;4.924;2022-08-11T00:35:56;3.28;;;2.88;;
24547;SDS011;12713;51.624;4.924;2022-08-11T00:38:25;3.05;;;2.70;;
24547;SDS011;12713;51.624;4.924;2022-08-11T00:41:00;5.88;;;3.38;;
24547;SDS011;12713;51.624;4.924;2022-08-11T00:53:56;3.20;;;2.78;;
24547;SDS011;12713;51.624;4.924;2022-08-11T00:56:58;4.93;;;3.20;;
24547;SDS011;12713;51.624;4.924;2022-08-11T00:59:40;3.53;;;2.80;;
24547;SDS011;12713;51.624;4.924;2022-08-11T01:18:11;4.03;;;3.25;;
24547;SDS011;12713;51.624;4.924;2022-08-11T01:42:00;6.53;;;3.90;;
24547;SDS011;12713;51.624;4.924;2022-08-11T02:01:21;5.30;;;4.30;;
24547;SDS011;12713;51.624;4.924;2022-08-11T02:03:53;5.93;;;4.22;;
24547;SDS011;12713;51.624;4.924;2022-08-11T02:06:31;5.80;;;4.03;;
24547;SDS011;12713;51.624;4.924;2022-08-11T02:09:23;5.10;;;4.47;;
24547;SDS011;12713;51.624;4.924;2022-08-11T02:11:51;4.82;;;3.97;;
24547;SDS011;12713;51.624;4.924;2022-08-11T02:16:57;7.60;;;4.63;;
24547;SDS011;12713;51.624;4.924;2022-08-11T02:22:24;8.85;;;4.78;;
24547;SDS011;12713;51.624;4.924;2022-08-11T02:25:16;6.13;;;3.92;;
24547;SDS011;12713;51.624;4.924;2022-08-11T02:28:09;6.53;;;4.47;;
24547;SDS011;12713;51.624;4.924;2022-08-11T02:30:40;6.40;;;4.30;;
24547;SDS011;12713;51.624;4.924;2022-08-11T02:36:02;6.45;;;4.13;;
24547;SDS011;12713;51.624;4.924;2022-08-11T02:38:37;4.85;;;4.22;;
24547;SDS011;12713;51.624;4.924;2022-08-11T02:49:32;8.13;;;5.38;;
24547;SDS011;12713;51.624;4.924;2022-08-11T02:57:40;6.78;;;4.60;;
24547;SDS011;12713;51.624;4.924;2022-08-11T03:00:09;7.78;;;5.05;;
24547;SDS011;12713;51.624;4.924;2022-08-11T03:02:48;6.10;;;4.47;;
24547;SDS011;12713;51.624;4.924;2022-08-11T03:05:23;7.85;;;4.22;;
24547;SDS011;12713;51.624;4.924;2022-08-11T03:08:35;5.55;;;4.05;;
24547;SDS011;12713;51.624;4.924;2022-08-11T03:24:46;7.75;;;4.72;;
24547;SDS011;12713;51.624;4.924;2022-08-11T03:30:04;6.68;;;5.07;;
24547;SDS011;12713;51.624;4.924;2022-08-11T03:35:00;6.57;;;5.43;;
24547;SDS011;12713;51.624;4.924;2022-08-11T03:37:41;6.38;;;5.00;;
24547;SDS011;12713;51.624;4.924;2022-08-11T03:42:56;6.38;;;4.85;;
24547;SDS011;12713;51.624;4.924;2022-08-11T03:45:36;8.07;;;5.43;;
24547;SDS011;12713;51.624;4.924;2022-08-11T03:59:01;9.32;;;4.82;;
24547;SDS011;12713;51.624;4.924;2022-08-11T04:07:12;5.65;;;4.90;;
24547;SDS011;12713;51.624;4.924;2022-08-11T04:12:41;7.20;;;5.30;;
24547;SDS011;12713;51.624;4.924;2022-08-11T04:23:49;7.43;;;5.22;;
24547;SDS011;12713;51.624;4.924;2022-08-11T05:00:36;6.55;;;5.35;;
24547;SDS011;12713;51.624;4.924;2022-08-11T05:13:48;7.80;;;5.82;;
24547;SDS011;12713;51.624;4.924;2022-08-11T05:16:40;7.05;;;6.35;;
24547;SDS011;12713;51.624;4.924;2022-08-11T05:19:26;7.63;;;5.57;;
24547;SDS011;12713;51.624;4.924;2022-08-11T05:22:11;9.70;;;6.13;;
24547;SDS011;12713;51.624;4.924;2022-08-11T05:30:55;9.40;;;5.72;;
24547;SDS011;12713;51.624;4.924;2022-08-11T05:36:35;8.85;;;6.28;;
24547;SDS011;12713;51.624;4.924;2022-08-11T05:39:10;7.38;;;5.55;;
24547;SDS011;12713;51.624;4.924;2022-08-11T05:41:56;7.60;;;5.93;;
24547;SDS011;12713;51.624;4.924;2022-08-11T05:44:43;6.95;;;5.00;;
24547;SDS011;12713;51.624;4.924;2022-08-11T05:47:28;12.13;;;6.00;;
24547;SDS011;12713;51.624;4.924;2022-08-11T05:50:14;7.40;;;5.25;;
24547;SDS011;12713;51.624;4.924;2022-08-11T05:53:00;8.77;;;5.72;;
24547;SDS011;12713;51.624;4.924;2022-08-11T05:55:46;7.18;;;5.18;;
24547;SDS011;12713;51.624;4.924;2022-08-11T05:58:35;7.85;;;5.47;;
24547;SDS011;12713;51.624;4.924;2022-08-11T06:01:03;7.55;;;4.75;;
24547;SDS011;12713;51.624;4.924;2022-08-11T06:03:30;6.93;;;4.78;;
24547;SDS011;12713;51.624;4.924;2022-08-11T06:06:17;8.75;;;4.85;;
24547;SDS011;12713;51.624;4.924;2022-08-11T06:08:43;9.05;;;5.10;;
24547;SDS011;12713;51.624;4.924;2022-08-11T06:11:10;6.72;;;4.70;;
24547;SDS011;12713;51.624;4.924;2022-08-11T06:13:43;7.00;;;5.18;;
24547;SDS011;12713;51.624;4.924;2022-08-11T06:16:10;8.40;;;5.60;;
24547;SDS011;12713;51.624;4.924;2022-08-11T06:18:39;5.35;;;4.82;;
24547;SDS011;12713;51.624;4.924;2022-08-11T06:21:10;7.32;;;4.70;;
24547;SDS011;12713;51.624;4.924;2022-08-11T06:23:36;6.03;;;4.63;;
24547;SDS011;12713;51.624;4.924;2022-08-11T06:26:11;10.27;;;5.60;;
24547;SDS011;12713;51.624;4.924;2022-08-11T06:28:44;9.18;;;6.25;;
24547;SDS011;12713;51.624;4.924;2022-08-11T06:31:20;11.60;;;5.63;;
24547;SDS011;12713;51.624;4.924;2022-08-11T06:36:40;11.13;;;6.53;;
24547;SDS011;12713;51.624;4.924;2022-08-11T06:41:52;13.90;;;5.90;;
24547;SDS011;12713;51.624;4.924;2022-08-11T06:44:23;7.45;;;5.20;;
24547;SDS011;12713;51.624;4.924;2022-08-11T06:46:52;13.48;;;6.18;;
24547;SDS011;12713;51.624;4.924;2022-08-11T06:49:31;10.50;;;5.57;;
24547;SDS011;12713;51.624;4.924;2022-08-11T06:52:31;11.98;;;5.85;;
24547;SDS011;12713;51.624;4.924;2022-08-11T06:54:58;15.27;;;5.78;;
24547;SDS011;12713;51.624;4.924;2022-08-11T06:57:31;11.32;;;5.65;;
24547;SDS011;12713;51.624;4.924;2022-08-11T07:00:16;13.43;;;5.78;;
24547;SDS011;12713;51.624;4.924;2022-08-11T07:02:53;10.25;;;5.30;;
24547;SDS011;12713;51.624;4.924;2022-08-11T07:13:38;8.05;;;4.60;;
24547;SDS011;12713;51.624;4.924;2022-08-11T07:16:27;11.80;;;4.78;;
24547;SDS011;12713;51.624;4.924;2022-08-11T07:19:16;8.18;;;4.47;;
24547;SDS011;12713;51.624;4.924;2022-08-11T07:21:58;11.10;;;4.85;;
24547;SDS011;12713;51.624;4.924;2022-08-11T07:24:48;8.55;;;4.47;;
24547;SDS011;12713;51.624;4.924;2022-08-11T07:27:36;6.95;;;3.83;;
24547;SDS011;12713;51.624;4.924;2022-08-11T07:30:24;9.93;;;4.50;;
24547;SDS011;12713;51.624;4.924;2022-08-11T07:32:55;8.00;;;4.60;;
24547;SDS011;12713;51.624;4.924;2022-08-11T07:37:58;5.28;;;3.58;;
24547;SDS011;12713;51.624;4.924;2022-08-11T07:40:30;13.52;;;4.68;;
24547;SDS011;12713;51.624;4.924;2022-08-11T07:42:56;6.85;;;4.03;;
24547;SDS011;12713;51.624;4.924;2022-08-11T07:45:23;9.90;;;4.30;;
24547;SDS011;12713;51.624;4.924;2022-08-11T07:48:10;9.18;;;4.63;;
24547;SDS011;12713;51.624;4.924;2022-08-11T07:50:56;7.43;;;3.90;;
24547;SDS011;12713;51.624;4.924;2022-08-11T07:53:41;7.72;;;3.70;;
24547;SDS011;12713;51.624;4.924;2022-08-11T07:56:07;7.55;;;3.88;;
24547;SDS011;12713;51.624;4.924;2022-08-11T07:58:34;8.90;;;4.05;;
24547;SDS011;12713;51.624;4.924;2022-08-11T08:01:23;10.05;;;4.10;;
24547;SDS011;12713;51.624;4.924;2022-08-11T08:04:08;14.85;;;4.00;;
24547;SDS011;12713;51.624;4.924;2022-08-11T08:06:55;5.28;;;4.10;;
24547;SDS011;12713;51.624;4.924;2022-08-11T08:09:41;10.68;;;4.10;;
24547;SDS011;12713;51.624;4.924;2022-08-11T08:12:26;7.93;;;3.90;;
24547;SDS011;12713;51.624;4.924;2022-08-11T08:15:13;10.68;;;4.00;;
24547;SDS011;12713;51.624;4.924;2022-08-11T08:18:00;5.68;;;3.13;;
24547;SDS011;12713;51.624;4.924;2022-08-11T08:20:28;5.28;;;2.90;;
24547;SDS011;12713;51.624;4.924;2022-08-11T08:22:58;5.22;;;3.70;;
24547;SDS011;12713;51.624;4.924;2022-08-11T08:25:31;10.35;;;3.17;;
24547;SDS011;12713;51.624;4.924;2022-08-11T08:27:58;5.78;;;3.20;;
24547;SDS011;12713;51.624;4.924;2022-08-11T08:30:28;6.05;;;3.72;;
24547;SDS011;12713;51.624;4.924;2022-08-11T08:33:18;8.27;;;3.75;;
24547;SDS011;12713;51.624;4.924;2022-08-11T08:35:45;7.95;;;3.47;;
24547;SDS011;12713;51.624;4.924;2022-08-11T08:38:12;8.05;;;3.83;;
24547;SDS011;12713;51.624;4.924;2022-08-11T08:40:39;11.90;;;3.80;;
24547;SDS011;12713;51.624;4.924;2022-08-11T08:43:08;8.55;;;3.95;;
24547;SDS011;12713;51.624;4.924;2022-08-11T08:45:37;7.07;;;4.32;;
24547;SDS011;12713;51.624;4.924;2022-08-11T08:50:32;5.50;;;3.42;;
24547;SDS011;12713;51.624;4.924;2022-08-11T08:53:35;9.85;;;3.58;;
24547;SDS011;12713;51.624;4.924;2022-08-11T08:56:11;5.80;;;3.17;;
24547;SDS011;12713;51.624;4.924;2022-08-11T08:58:38;6.03;;;3.92;;
24547;SDS011;12713;51.624;4.924;2022-08-11T09:01:04;7.88;;;3.78;;
24547;SDS011;12713;51.624;4.924;2022-08-11T09:03:35;8.18;;;3.47;;
24547;SDS011;12713;51.624;4.924;2022-08-11T09:06:02;7.93;;;3.60;;
24547;SDS011;12713;51.624;4.924;2022-08-11T09:08:31;7.05;;;3.72;;
24547;SDS011;12713;51.624;4.924;2022-08-11T09:11:01;6.75;;;3.58;;
24547;SDS011;12713;51.624;4.924;2022-08-11T09:13:47;8.30;;;3.88;;
24547;SDS011;12713;51.624;4.924;2022-08-11T09:16:14;10.52;;;4.15;;
24547;SDS011;12713;51.624;4.924;2022-08-11T09:18:40;5.05;;;3.33;;
24547;SDS011;12713;51.624;4.924;2022-08-11T09:21:39;9.40;;;4.15;;
24547;SDS011;12713;51.624;4.924;2022-08-11T09:24:05;10.98;;;3.95;;
24547;SDS011;12713;51.624;4.924;2022-08-11T09:26:51;8.85;;;3.75;;
24547;SDS011;12713;51.624;4.924;2022-08-11T09:29:35;5.93;;;3.92;;
24547;SDS011;12713;51.624;4.924;2022-08-11T09:32:02;8.90;;;3.50;;
24547;SDS011;12713;51.624;4.924;2022-08-11T09:34:31;6.78;;;3.80;;
24547;SDS011;12713;51.624;4.924;2022-08-11T09:37:00;3.78;;;3.33;;
24547;SDS011;12713;51.624;4.924;2022-08-11T09:39:47;8.98;;;3.10;;
24547;SDS011;12713;51.624;4.924;2022-08-11T09:42:32;8.85;;;3.72;;
24547;SDS011;12713;51.624;4.924;2022-08-11T09:45:31;7.32;;;3.60;;
24547;SDS011;12713;51.624;4.924;2022-08-11T09:47:58;5.10;;;3.35;;
24547;SDS011;12713;51.624;4.924;2022-08-11T09:50:29;5.85;;;3.55;;
24547;SDS011;12713;51.624;4.924;2022-08-11T09:52:56;7.10;;;3.28;;
24547;SDS011;12713;51.624;4.924;2022-08-11T09:55:22;6.95;;;3.72;;
24547;SDS011;12713;51.624;4.924;2022-08-11T09:57:48;5.93;;;3.17;;
24547;SDS011;12713;51.624;4.924;2022-08-11T10:00:35;5.97;;;3.05;;
24547;SDS011;12713;51.624;4.924;2022-08-11T10:03:12;8.00;;;3.42;;
24547;SDS011;12713;51.624;4.924;2022-08-11T10:05:42;7.75;;;3.50;;
24547;SDS011;12713;51.624;4.924;2022-08-11T10:08:31;3.90;;;2.97;;
24547;SDS011;12713;51.624;4.924;2022-08-11T10:11:01;9.75;;;3.42;;
24547;SDS011;12713;51.624;4.924;2022-08-11T10:13:29;5.80;;;3.42;;
24547;SDS011;12713;51.624;4.924;2022-08-11T10:16:02;7.25;;;3.38;;
24547;SDS011;12713;51.624;4.924;2022-08-11T10:18:33;6.85;;;3.28;;
24547;SDS011;12713;51.624;4.924;2022-08-11T10:23:52;8.95;;;3.20;;
24547;SDS011;12713;51.624;4.924;2022-08-11T10:26:37;3.92;;;3.00;;
24547;SDS011;12713;51.624;4.924;2022-08-11T10:29:26;15.30;;;3.70;;
24547;SDS011;12713;51.624;4.924;2022-08-11T10:32:12;7.63;;;3.30;;
24547;SDS011;12713;51.624;4.924;2022-08-11T10:34:58;7.25;;;3.35;;
24547;SDS011;12713;51.624;4.924;2022-08-11T10:37:24;4.82;;;3.10;;
24547;SDS011;12713;51.624;4.924;2022-08-11T10:39:51;7.95;;;3.45;;
24547;SDS011;12713;51.624;4.924;2022-08-11T10:42:20;9.30;;;3.95;;
24547;SDS011;12713;51.624;4.924;2022-08-11T10:45:05;10.90;;;3.38;;
24547;SDS011;12713;51.624;4.924;2022-08-11T10:47:55;8.35;;;3.08;;
24547;SDS011;12713;51.624;4.924;2022-08-11T10:50:22;9.85;;;3.70;;
24547;SDS011;12713;51.624;4.924;2022-08-11T10:53:06;10.15;;;3.10;;
24547;SDS011;12713;51.624;4.924;2022-08-11T10:55:52;7.55;;;3.30;;
24547;SDS011;12713;51.624;4.924;2022-08-11T10:58:37;7.32;;;3.00;;
24547;SDS011;12713;51.624;4.924;2022-08-11T11:01:13;6.45;;;3.08;;
24547;SDS011;12713;51.624;4.924;2022-08-11T11:03:40;4.85;;;3.05;;
24547;SDS011;12713;51.624;4.924;2022-08-11T11:09:38;4.22;;;3.15;;
24547;SDS011;12713;51.624;4.924;2022-08-11T11:11:39;4.53;;;3.15;;
24547;SDS011;12713;51.624;4.924;2022-08-11T11:14:27;3.75;;;2.90;;
24547;SDS011;12713;51.624;4.924;2022-08-11T11:17:13;7.45;;;3.35;;
24547;SDS011;12713;51.624;4.924;2022-08-11T11:19:45;4.75;;;3.70;;
24547;SDS011;12713;51.624;4.924;2022-08-11T11:22:14;8.15;;;3.35;;
24547;SDS011;12713;51.624;4.924;2022-08-11T11:25:07;8.98;;;3.20;;
24547;SDS011;12713;51.624;4.924;2022-08-11T11:27:44;6.18;;;3.33;;
24547;SDS011;12713;51.624;4.924;2022-08-11T11:30:13;9.50;;;3.17;;
24547;SDS011;12713;51.624;4.924;2022-08-11T11:33:18;3.70;;;2.75;;
24547;SDS011;12713;51.624;4.924;2022-08-11T11:38:02;7.95;;;3.13;;
24547;SDS011;12713;51.624;4.924;2022-08-11T11:40:33;9.88;;;2.70;;
24547;SDS011;12713;51.624;4.924;2022-08-11T11:43:01;2.97;;;2.65;;
24547;SDS011;12713;51.624;4.924;2022-08-11T11:45:27;5.75;;;2.78;;
24547;SDS011;12713;51.624;4.924;2022-08-11T11:47:54;5.15;;;2.65;;
24547;SDS011;12713;51.624;4.924;2022-08-11T11:50:24;7.10;;;3.00;;
24547;SDS011;12713;51.624;4.924;2022-08-11T11:52:51;4.25;;;2.53;;
24547;SDS011;12713;51.624;4.924;2022-08-11T11:55:20;5.68;;;2.50;;
24547;SDS011;12713;51.624;4.924;2022-08-11T11:57:46;3.72;;;2.53;;
24547;SDS011;12713;51.624;4.924;2022-08-11T12:00:31;7.57;;;2.90;;
24547;SDS011;12713;51.624;4.924;2022-08-11T12:03:16;10.63;;;2.92;;
24547;SDS011;12713;51.624;4.924;2022-08-11T12:05:43;4.43;;;3.03;;
24547;SDS011;12713;51.624;4.924;2022-08-11T12:08:09;8.45;;;3.25;;
24547;SDS011;12713;51.624;4.924;2022-08-11T12:13:13;5.05;;;2.60;;
24547;SDS011;12713;51.624;4.924;2022-08-11T12:15:58;3.92;;;2.83;;
24547;SDS011;12713;51.624;4.924;2022-08-11T12:18:28;5.95;;;2.67;;
24547;SDS011;12713;51.624;4.924;2022-08-11T12:20:56;4.70;;;3.00;;
24547;SDS011;12713;51.624;4.924;2022-08-11T12:23:22;3.20;;;2.70;;
24547;SDS011;12713;51.624;4.924;2022-08-11T12:26:07;4.72;;;2.40;;
24547;SDS011;12713;51.624;4.924;2022-08-11T12:28:52;3.53;;;2.47;;
24547;SDS011;12713;51.624;4.924;2022-08-11T12:31:24;7.20;;;2.60;;
24547;SDS011;12713;51.624;4.924;2022-08-11T12:33:51;4.10;;;2.85;;
24547;SDS011;12713;51.624;4.924;2022-08-11T12:36:18;2.78;;;2.55;;
24547;SDS011;12713;51.624;4.924;2022-08-11T12:38:45;5.80;;;2.60;;
24547;SDS011;12713;51.624;4.924;2022-08-11T12:41:13;7.80;;;3.08;;
24547;SDS011;12713;51.624;4.924;2022-08-11T12:43:58;6.00;;;3.05;;
24547;SDS011;12713;51.624;4.924;2022-08-11T12:46:44;7.38;;;2.83;;
24547;SDS011;12713;51.624;4.924;2022-08-11T12:49:19;6.97;;;2.90;;
24547;SDS011;12713;51.624;4.924;2022-08-11T12:52:05;5.85;;;2.90;;
24547;SDS011;12713;51.624;4.924;2022-08-11T12:57:03;3.88;;;2.45;;
24547;SDS011;12713;51.624;4.924;2022-08-11T12:59:50;6.90;;;3.10;;
24547;SDS011;12713;51.624;4.924;2022-08-11T13:02:35;3.55;;;2.30;;
24547;SDS011;12713;51.624;4.924;2022-08-11T13:05:20;5.00;;;2.50;;
24547;SDS011;12713;51.624;4.924;2022-08-11T13:07:47;8.93;;;2.40;;
24547;SDS011;12713;51.624;4.924;2022-08-11T13:10:15;5.60;;;2.15;;
24547;SDS011;12713;51.624;4.924;2022-08-11T13:13:05;5.93;;;2.28;;
24547;SDS011;12713;51.624;4.924;2022-08-11T13:15:31;4.80;;;2.05;;
24547;SDS011;12713;51.624;4.924;2022-08-11T13:17:58;7.20;;;2.53;;
24547;SDS011;12713;51.624;4.924;2022-08-11T13:20:24;4.80;;;2.33;;
24547;SDS011;12713;51.624;4.924;2022-08-11T13:22:54;5.30;;;2.67;;
24547;SDS011;12713;51.624;4.924;2022-08-11T13:25:21;4.55;;;2.30;;
24547;SDS011;12713;51.624;4.924;2022-08-11T13:27:50;6.57;;;2.70;;
24547;SDS011;12713;51.624;4.924;2022-08-11T13:30:17;6.10;;;2.72;;
24547;SDS011;12713;51.624;4.924;2022-08-11T13:33:03;5.43;;;2.53;;
24547;SDS011;12713;51.624;4.924;2022-08-11T13:35:31;4.95;;;3.00;;
24547;SDS011;12713;51.624;4.924;2022-08-11T13:37:58;4.18;;;2.28;;
24547;SDS011;12713;51.624;4.924;2022-08-11T13:40:25;4.93;;;2.83;;
24547;SDS011;12713;51.624;4.924;2022-08-11T13:42:52;6.68;;;2.55;;
24547;SDS011;12713;51.624;4.924;2022-08-11T13:45:19;4.10;;;2.20;;
24547;SDS011;12713;51.624;4.924;2022-08-11T13:47:47;4.70;;;2.28;;
24547;SDS011;12713;51.624;4.924;2022-08-11T13:50:14;3.17;;;2.55;;
24547;SDS011;12713;51.624;4.924;2022-08-11T13:52:41;7.70;;;2.70;;
24547;SDS011;12713;51.624;4.924;2022-08-11T13:55:09;3.70;;;2.40;;
24547;SDS011;12713;51.624;4.924;2022-08-11T13:57:46;6.88;;;2.55;;
24547;SDS011;12713;51.624;4.924;2022-08-11T14:00:12;2.47;;;2.13;;
24547;SDS011;12713;51.624;4.924;2022-08-11T14:02:40;5.03;;;2.63;;
24547;SDS011;12713;51.624;4.924;2022-08-11T14:05:14;7.47;;;2.80;;
24547;SDS011;12713;51.624;4.924;2022-08-11T14:07:47;3.88;;;2.33;;
24547;SDS011;12713;51.624;4.924;2022-08-11T14:10:17;2.70;;;2.17;;
24547;SDS011;12713;51.624;4.924;2022-08-11T14:12:46;3.45;;;2.33;;
24547;SDS011;12713;51.624;4.924;2022-08-11T14:15:32;10.15;;;3.03;;
24547;SDS011;12713;51.624;4.924;2022-08-11T14:20:27;5.10;;;2.25;;
24547;SDS011;12713;51.624;4.924;2022-08-11T14:23:14;5.47;;;2.30;;
24547;SDS011;12713;51.624;4.924;2022-08-11T14:25:41;3.55;;;2.55;;
24547;SDS011;12713;51.624;4.924;2022-08-11T14:28:27;7.13;;;2.53;;
24547;SDS011;12713;51.624;4.924;2022-08-11T14:30:53;3.00;;;2.65;;
24547;SDS011;12713;51.624;4.924;2022-08-11T14:33:20;3.65;;;2.50;;
24547;SDS011;12713;51.624;4.924;2022-08-11T14:35:46;7.50;;;2.60;;
24547;SDS011;12713;51.624;4.924;2022-08-11T14:38:12;6.75;;;2.60;;
24547;SDS011;12713;51.624;4.924;2022-08-11T14:40:47;3.20;;;2.25;;
24547;SDS011;12713;51.624;4.924;2022-08-11T14:43:35;3.45;;;2.40;;
24547;SDS011;12713;51.624;4.924;2022-08-11T14:46:20;8.45;;;2.63;;
24547;SDS011;12713;51.624;4.924;2022-08-11T14:49:05;2.85;;;2.10;;
24547;SDS011;12713;51.624;4.924;2022-08-11T14:51:31;4.97;;;2.30;;
24547;SDS011;12713;51.624;4.924;2022-08-11T14:53:58;7.30;;;3.13;;
24547;SDS011;12713;51.624;4.924;2022-08-11T14:56:44;4.68;;;2.45;;
24547;SDS011;12713;51.624;4.924;2022-08-11T14:59:20;4.32;;;2.50;;
24547;SDS011;12713;51.624;4.924;2022-08-11T15:01:46;4.63;;;2.80;;
24547;SDS011;12713;51.624;4.924;2022-08-11T15:04:32;6.20;;;2.78;;
24547;SDS011;12713;51.624;4.924;2022-08-11T15:06:58;4.50;;;2.50;;
24547;SDS011;12713;51.624;4.924;2022-08-11T15:09:24;5.25;;;2.63;;
24547;SDS011;12713;51.624;4.924;2022-08-11T15:11:50;3.65;;;3.05;;
24547;SDS011;12713;51.624;4.924;2022-08-11T15:14:32;6.97;;;3.20;;
24547;SDS011;12713;51.624;4.924;2022-08-11T15:19:52;4.38;;;2.40;;
24547;SDS011;12713;51.624;4.924;2022-08-11T15:22:42;7.57;;;2.60;;
24547;SDS011;12713;51.624;4.924;2022-08-11T15:25:27;2.75;;;2.42;;
24547;SDS011;12713;51.624;4.924;2022-08-11T15:27:57;6.88;;;3.13;;
24547;SDS011;12713;51.624;4.924;2022-08-11T15:30:42;7.03;;;2.38;;
24547;SDS011;12713;51.624;4.924;2022-08-11T15:33:28;7.03;;;2.88;;
24547;SDS011;12713;51.624;4.924;2022-08-11T15:36:13;5.00;;;2.47;;
24547;SDS011;12713;51.624;4.924;2022-08-11T15:39:11;3.75;;;2.42;;
24547;SDS011;12713;51.624;4.924;2022-08-11T15:41:44;6.55;;;2.40;;
24547;SDS011;12713;51.624;4.924;2022-08-11T15:44:32;5.22;;;2.75;;
24547;SDS011;12713;51.624;4.924;2022-08-11T15:47:17;4.68;;;2.90;;
24547;SDS011;12713;51.624;4.924;2022-08-11T15:49:50;3.00;;;2.67;;
24547;SDS011;12713;51.624;4.924;2022-08-11T15:52:18;7.38;;;2.60;;
24547;SDS011;12713;51.624;4.924;2022-08-11T15:54:46;3.67;;;2.80;;
24547;SDS011;12713;51.624;4.924;2022-08-11T15:57:14;4.97;;;2.63;;
24547;SDS011;12713;51.624;4.924;2022-08-11T16:00:02;5.60;;;2.40;;
24547;SDS011;12713;51.624;4.924;2022-08-11T16:02:48;7.65;;;3.42;;
24547;SDS011;12713;51.624;4.924;2022-08-11T16:05:21;7.75;;;3.00;;
24547;SDS011;12713;51.624;4.924;2022-08-11T16:07:50;6.57;;;2.83;;
24547;SDS011;12713;51.624;4.924;2022-08-11T16:10:17;8.95;;;2.67;;
24547;SDS011;12713;51.624;4.924;2022-08-11T16:12:49;7.72;;;3.17;;
24547;SDS011;12713;51.624;4.924;2022-08-11T16:15:30;7.35;;;3.15;;
24547;SDS011;12713;51.624;4.924;2022-08-11T16:18:18;4.15;;;2.88;;
24547;SDS011;12713;51.624;4.924;2022-08-11T16:20:45;4.72;;;2.67;;
24547;SDS011;12713;51.624;4.924;2022-08-11T16:23:12;7.03;;;2.80;;
24547;SDS011;12713;51.624;4.924;2022-08-11T16:25:40;6.28;;;2.58;;
24547;SDS011;12713;51.624;4.924;2022-08-11T16:28:06;5.57;;;2.92;;
24547;SDS011;12713;51.624;4.924;2022-08-11T16:30:35;5.78;;;2.30;;
24547;SDS011;12713;51.624;4.924;2022-08-11T16:33:02;5.55;;;2.42;;
24547;SDS011;12713;51.624;4.924;2022-08-11T16:35:29;6.40;;;3.05;;
24547;SDS011;12713;51.624;4.924;2022-08-11T16:38:15;6.50;;;2.30;;
24547;SDS011;12713;51.624;4.924;2022-08-11T16:41:04;6.15;;;2.63;;
24547;SDS011;12713;51.624;4.924;2022-08-11T16:43:31;5.38;;;3.00;;
24547;SDS011;12713;51.624;4.924;2022-08-11T16:46:18;6.70;;;2.63;;
24547;SDS011;12713;51.624;4.924;2022-08-11T16:49:04;4.63;;;2.38;;
24547;SDS011;12713;51.624;4.924;2022-08-11T16:51:30;4.03;;;2.60;;
24547;SDS011;12713;51.624;4.924;2022-08-11T16:53:56;4.70;;;2.50;;
24547;SDS011;12713;51.624;4.924;2022-08-11T16:56:28;6.93;;;2.45;;
24547;SDS011;12713;51.624;4.924;2022-08-11T16:58:56;2.55;;;2.20;;
24547;SDS011;12713;51.624;4.924;2022-08-11T17:01:44;3.13;;;2.35;;
24547;SDS011;12713;51.624;4.924;2022-08-11T17:04:26;5.70;;;2.53;;
24547;SDS011;12713;51.624;4.924;2022-08-11T17:07:12;7.90;;;2.90;;
24547;SDS011;12713;51.624;4.924;2022-08-11T17:09:58;7.18;;;2.35;;
24547;SDS011;12713;51.624;4.924;2022-08-11T17:12:44;3.95;;;2.92;;
24547;SDS011;12713;51.624;4.924;2022-08-11T17:15:29;4.10;;;2.50;;
24547;SDS011;12713;51.624;4.924;2022-08-11T17:18:15;7.40;;;2.85;;
24547;SDS011;12713;51.624;4.924;2022-08-11T17:21:02;3.20;;;2.63;;
24547;SDS011;12713;51.624;4.924;2022-08-11T17:23:30;6.20;;;2.45;;
24547;SDS011;12713;51.624;4.924;2022-08-11T17:31:53;4.35;;;2.50;;
24547;SDS011;12713;51.624;4.924;2022-08-11T17:34:42;6.60;;;3.00;;
24547;SDS011;12713;51.624;4.924;2022-08-11T17:37:31;8.40;;;2.10;;
24547;SDS011;12713;51.624;4.924;2022-08-11T17:40:03;2.97;;;2.30;;
24547;SDS011;12713;51.624;4.924;2022-08-11T17:42:33;5.15;;;2.42;;
24547;SDS011;12713;51.624;4.924;2022-08-11T17:45:20;4.93;;;2.20;;
24547;SDS011;12713;51.624;4.924;2022-08-11T17:48:06;5.07;;;2.47;;
24547;SDS011;12713;51.624;4.924;2022-08-11T17:50:58;4.43;;;2.53;;
24547;SDS011;12713;51.624;4.924;2022-08-11T17:53:28;4.65;;;2.63;;
24547;SDS011;12713;51.624;4.924;2022-08-11T17:56:13;3.63;;;2.38;;
24547;SDS011;12713;51.624;4.924;2022-08-11T17:58:59;6.70;;;2.58;;
24547;SDS011;12713;51.624;4.924;2022-08-11T18:01:45;5.45;;;2.13;;
24547;SDS011;12713;51.624;4.924;2022-08-11T18:04:14;7.63;;;2.80;;
24547;SDS011;12713;51.624;4.924;2022-08-11T18:06:50;3.35;;;2.63;;
24547;SDS011;12713;51.624;4.924;2022-08-11T18:09:21;3.05;;;2.42;;
24547;SDS011;12713;51.624;4.924;2022-08-11T18:12:06;6.40;;;2.72;;
24547;SDS011;12713;51.624;4.924;2022-08-11T18:14:52;7.45;;;2.90;;
24547;SDS011;12713;51.624;4.924;2022-08-11T18:17:37;5.28;;;2.53;;
24547;SDS011;12713;51.624;4.924;2022-08-11T18:20:24;5.30;;;2.58;;
24547;SDS011;12713;51.624;4.924;2022-08-11T18:23:10;5.25;;;2.63;;
24547;SDS011;12713;51.624;4.924;2022-08-11T18:25:58;5.63;;;2.63;;
24547;SDS011;12713;51.624;4.924;2022-08-11T18:28:44;5.78;;;2.70;;
24547;SDS011;12713;51.624;4.924;2022-08-11T18:31:33;4.13;;;2.72;;
24547;SDS011;12713;51.624;4.924;2022-08-11T18:34:19;4.50;;;2.75;;
24547;SDS011;12713;51.624;4.924;2022-08-11T18:37:06;3.83;;;2.65;;
24547;SDS011;12713;51.624;4.924;2022-08-11T18:39:57;4.22;;;2.50;;
24547;SDS011;12713;51.624;4.924;2022-08-11T18:42:43;5.38;;;2.95;;
24547;SDS011;12713;51.624;4.924;2022-08-11T18:45:30;4.75;;;3.03;;
24547;SDS011;12713;51.624;4.924;2022-08-11T18:48:16;4.50;;;2.90;;
24547;SDS011;12713;51.624;4.924;2022-08-11T18:51:03;5.85;;;2.83;;
24547;SDS011;12713;51.624;4.924;2022-08-11T18:53:54;6.90;;;2.60;;
24547;SDS011;12713;51.624;4.924;2022-08-11T18:56:40;5.85;;;2.50;;
24547;SDS011;12713;51.624;4.924;2022-08-11T19:02:31;3.38;;;2.78;;
24547;SDS011;12713;51.624;4.924;2022-08-11T19:05:31;4.97;;;2.80;;
24547;SDS011;12713;51.624;4.924;2022-08-11T19:08:20;5.20;;;2.63;;
24547;SDS011;12713;51.624;4.924;2022-08-11T19:11:12;7.70;;;3.38;;
24547;SDS011;12713;51.624;4.924;2022-08-11T19:14:02;5.30;;;2.80;;
24547;SDS011;12713;51.624;4.924;2022-08-11T19:16:57;3.45;;;2.90;;
24547;SDS011;12713;51.624;4.924;2022-08-11T19:23:32;6.10;;;3.15;;
24547;SDS011;12713;51.624;4.924;2022-08-11T19:30:11;4.68;;;2.60;;
24547;SDS011;12713;51.624;4.924;2022-08-11T19:33:06;4.68;;;3.13;;
24547;SDS011;12713;51.624;4.924;2022-08-11T19:36:02;3.45;;;3.10;;
24547;SDS011;12713;51.624;4.924;2022-08-11T19:39:04;5.30;;;3.13;;
24547;SDS011;12713;51.624;4.924;2022-08-11T19:41:52;4.07;;;2.95;;
24547;SDS011;12713;51.624;4.924;2022-08-11T19:44:38;5.32;;;3.03;;
24547;SDS011;12713;51.624;4.924;2022-08-11T19:47:24;3.80;;;3.20;;